Time;durP1;ratioP1;P1;durP2;ratioP2;P2;SDS_P1;SDS_P2;PMS_P1;PMS_P2;Temp;Humidity;BMP_temperature;BMP_pressure;BME280_temperature;BME280_humidity;BME280_pressure;Samples;Min_cycle;Max_cycle;Signal;HPM_P1;HPM_P2
2023/10/11 07:15:25;;;;;;;;;;;;;;;6.06;100.00;99905.09;4998759;28;20292;-82
2023/10/11 07:17:52;;;;;;;;;;;;;;;6.18;100.00;99911.88;5010847;28;19925;-82
2023/10/11 07:20:47;;;;;;;;;;;;;;;6.16;100.00;99914.53;5011802;28;19922;-82
2023/10/11 07:23:05;;;;;;;;;;;;;;;6.22;100.00;99924.03;5007270;28;20075;-82
2023/10/11 07:25:45;;;;;;;;;;;;;;;6.26;100.00;99923.09;5010083;28;19925;-82
2023/10/11 07:28:11;;;;;;;;;;;;;;;6.16;100.00;99919.81;5009895;28;19925;-82
2023/10/11 07:30:37;;;;;;;;;;;;;;;6.17;100.00;99925.91;5008369;28;20358;-82
2023/10/11 07:33:04;;;;;;;;;;;;;;;6.26;100.00;99923.09;5007253;28;20020;-82
2023/10/11 07:35:29;;;;;;;;;;;;;;;6.20;100.00;99931.13;5008721;28;19975;-82
2023/10/11 07:37:56;;;;;;;;;;;;;;;6.27;100.00;99931.84;5008170;28;20311;-82
2023/10/11 07:40:33;;;;;;;;;;;;;;;6.29;100.00;99932.69;5008266;28;20056;-82
2023/10/11 07:42:58;;;;;;;;;;;;;;;6.14;100.00;99931.25;5009497;28;20402;-82
2023/10/11 07:45:26;;;;;;;;;;;;;;;6.23;100.00;99919.66;5008553;28;20419;-81
2023/10/11 07:47:52;;;;;;;;;;;;;;;6.16;100.00;99922.44;5011240;28;19922;-82
2023/10/11 07:50:24;;;;;;;;;;;;;;;6.16;100.00;99926.84;5010556;28;19936;-82
2023/10/11 07:52:49;;;;;;;;;;;;;;;6.14;100.00;99928.63;5009793;28;19921;-82
2023/10/11 07:55:17;;;;;;;;;;;;;;;6.18;100.00;99935.56;5009666;28;20484;-82
2023/10/11 07:57:45;;;;;;;;;;;;;;;6.20;100.00;99930.25;5009991;28;20442;-82
2023/10/11 08:00:17;;;;;;;;;;;;;;;6.07;100.00;99925.25;5007320;28;19932;-83
2023/10/11 08:02:43;;;;;;;;;;;;;;;6.21;100.00;99932.84;5011553;28;20304;-82
2023/10/11 08:05:13;;;;;;;;;;;;;;;6.20;100.00;99931.13;5010107;28;19972;-82
2023/10/11 08:07:40;;;;;;;;;;;;;;;6.28;100.00;99933.56;5008872;28;19971;-82
2023/10/11 08:12:50;;;;;;;;;;;;;;;6.30;100.00;99921.25;5010203;28;19992;-82
2023/10/11 08:15:20;;;;;;;;;;;;;;;6.28;100.00;99926.53;5007041;28;19925;-81
2023/10/11 08:17:46;;;;;;;;;;;;;;;6.31;100.00;99929.09;5010287;28;19925;-83
2023/10/11 08:20:15;;;;;;;;;;;;;;;7.11;100.00;99926.25;5004431;28;19921;-81
2023/10/11 08:22:40;;;;;;;;;;;;;;;6.43;100.00;99930.59;5009324;28;19925;-86
2023/10/11 08:25:12;;;;;;;;;;;;;;;6.44;100.00;99939.34;4993119;28;19976;-80
2023/10/11 08:27:37;;;;;;;;;;;;;;;6.33;100.00;99932.59;5009226;28;19926;-81
2023/10/11 08:32:43;;;;;;;;;;;;;;;6.36;100.00;99937.75;5009771;28;19984;-81
2023/10/11 08:35:09;;;;;;;;;;;;;;;6.36;100.00;99940.38;5011892;28;20406;-80
2023/10/11 08:37:34;;;;;;;;;;;;;;;6.42;100.00;99942.03;4993236;28;19925;-81
2023/10/11 08:40:19;;;;;;;;;;;;;;;6.38;100.00;99934.22;5010985;28;19930;-81
2023/10/11 08:42:48;;;;;;;;;;;;;;;6.34;100.00;99933.44;5009998;28;19983;-81
2023/10/11 08:45:17;;;;;;;;;;;;;;;6.34;100.00;99936.94;4992990;28;19971;-80
2023/10/11 08:47:45;;;;;;;;;;;;;;;6.36;100.00;99921.09;5011660;28;20024;-81
2023/10/11 08:50:17;;;;;;;;;;;;;;;6.32;100.00;99912.41;5014732;28;20399;-81
2023/10/11 08:52:42;;;;;;;;;;;;;;;6.31;100.00;99912.47;5013906;28;20369;-81
2023/10/11 08:55:12;;;;;;;;;;;;;;;6.36;100.00;99911.44;5015462;28;19922;-81
2023/10/11 08:57:37;;;;;;;;;;;;;;;6.42;100.00;99909.56;5012230;28;20380;-81
2023/10/11 09:00:17;;;;;;;;;;;;;;;6.34;100.00;99907.97;5013788;28;19928;-81
2023/10/11 09:02:48;;;;;;;;;;;;;;;6.45;100.00;99907.72;5012937;28;20285;-81
2023/10/11 09:05:29;;;;;;;;;;;;;;;7.71;100.00;99900.88;5014096;28;19925;-81
2023/10/11 09:07:54;;;;;;;;;;;;;;;7.04;100.00;99896.59;5014096;28;19987;-81
2023/10/11 09:10:25;;;;;;;;;;;;;;;6.78;100.00;99896.38;5012060;28;20016;-81
2023/10/11 09:12:56;;;;;;;;;;;;;;;6.68;100.00;99907.16;5011791;28;19963;-81
2023/10/11 09:15:21;;;;;;;;;;;;;;;6.64;100.00;99910.78;4996320;28;20009;-81
2023/10/11 09:17:50;;;;;;;;;;;;;;;8.79;100.00;99910.75;5013426;28;19944;-81
2023/10/11 09:20:23;;;;;;;;;;;;;;;14.32;100.00;99898.44;5014144;28;20055;-80
2023/10/11 09:22:52;;;;;;;;;;;;;;;15.86;100.00;99868.91;5014701;28;20273;-81
2023/10/11 09:25:33;;;;;;;;;;;;;;;16.43;100.00;99868.75;5013718;28;19921;-83
2023/10/11 09:27:59;;;;;;;;;;;;;;;16.59;100.00;99860.56;5010787;28;19928;-82
2023/10/11 09:30:27;;;;;;;;;;;;;;;16.84;100.00;99866.97;5013244;28;20311;-81
2023/10/11 09:32:52;;;;;;;;;;;;;;;16.95;100.00;99851.06;5011864;28;19932;-81
2023/10/11 09:35:23;;;;;;;;;;;;;;;17.39;100.00;99863.22;5013961;28;20368;-80
2023/10/11 09:37:49;;;;;;;;;;;;;;;14.24;100.00;99863.38;4995792;28;19921;-80
2023/10/11 09:40:16;;;;;;;;;;;;;;;11.81;100.00;99885.53;5012438;28;20439;-80
2023/10/11 09:42:43;;;;;;;;;;;;;;;10.86;100.00;99890.59;5012504;28;19917;-81
2023/10/11 09:45:16;;;;;;;;;;;;;;;10.39;100.00;99895.22;4993788;28;20336;-82
2023/10/11 09:47:43;;;;;;;;;;;;;;;10.04;100.00;99897.47;4989727;28;19992;-87
2023/10/11 09:50:14;;;;;;;;;;;;;;;9.96;100.00;99903.06;5013837;28;20352;-81
2023/10/11 09:52:45;;;;;;;;;;;;;;;9.71;100.00;99900.47;5013055;28;19921;-81
2023/10/11 09:55:17;;;;;;;;;;;;;;;9.64;100.00;99902.47;5013192;28;19921;-81
2023/10/11 09:57:50;;;;;;;;;;;;;;;9.52;100.00;99903.78;5011178;28;19922;-82
2023/10/11 10:00:18;;;;;;;;;;;;;;;9.49;100.00;99898.59;5008766;28;20411;-81
2023/10/11 10:02:50;;;;;;;;;;;;;;;9.44;100.00;99900.56;5013365;28;19921;-80
2023/10/11 10:05:16;;;;;;;;;;;;;;;9.43;100.00;99899.72;5009813;28;19932;-81
2023/10/11 10:07:44;;;;;;;;;;;;;;;9.40;100.00;99898.97;5004092;28;20020;-81
2023/10/11 10:10:13;;;;;;;;;;;;;;;9.21;100.00;99893.47;5011484;28;19928;-79
2023/10/11 10:12:57;;;;;;;;;;;;;;;9.23;100.00;99887.19;5012502;28;19949;-81
2023/10/11 10:15:23;;;;;;;;;;;;;;;9.18;100.00;99886.50;5012743;28;19975;-80
2023/10/11 10:18:00;;;;;;;;;;;;;;;9.17;100.00;99881.25;5013710;28;19922;-83
2023/10/11 10:20:32;;;;;;;;;;;;;;;9.10;100.00;99875.34;5013167;28;19922;-80
2023/10/11 10:23:16;;;;;;;;;;;;;;;9.17;100.00;99873.34;5013304;28;19918;-84
2023/10/11 10:25:48;;;;;;;;;;;;;;;9.21;100.00;99878.47;5013633;28;19917;-81
2023/10/11 10:28:34;;;;;;;;;;;;;;;9.16;100.00;99876.88;5011585;28;19926;-80
2023/10/11 10:31:09;;;;;;;;;;;;;;;9.06;100.00;99877.22;5005126;28;19925;-81
2023/10/11 10:33:35;;;;;;;;;;;;;;;9.05;100.00;99872.84;5012692;28;19929;-81
2023/10/11 10:36:22;;;;;;;;;;;;;;;9.14;100.00;99874.28;5013319;28;20293;-81
2023/10/11 10:38:59;;;;;;;;;;;;;;;9.06;100.00;99874.59;5012409;28;20007;-82
2023/10/11 10:41:25;;;;;;;;;;;;;;;9.17;100.00;99870.69;5012504;28;20296;-81
2023/10/11 10:44:11;;;;;;;;;;;;;;;9.09;100.00;99874.47;5011975;28;19921;-81
2023/10/11 10:46:37;;;;;;;;;;;;;;;9.03;100.00;99874.69;5012324;28;19917;-81
2023/10/11 10:49:04;;;;;;;;;;;;;;;8.97;100.00;99869.63;5010872;28;19922;-81
2023/10/11 10:51:35;;;;;;;;;;;;;;;8.96;100.00;99869.66;4990288;28;20400;-81
2023/10/11 10:54:04;;;;;;;;;;;;;;;9.10;100.00;99859.47;5012963;28;19926;-81
2023/10/11 10:56:29;;;;;;;;;;;;;;;9.09;100.00;99866.56;5013190;28;20269;-81
2023/10/11 10:59:25;;;;;;;;;;;;;;;9.08;100.00;99869.25;5002198;28;19922;-81
2023/10/11 11:01:51;;;;;;;;;;;;;;;9.21;100.00;99867.88;5009958;28;19926;-81
2023/10/11 11:04:20;;;;;;;;;;;;;;;10.60;100.00;99853.75;4988843;28;20465;-79
2023/10/11 11:06:46;;;;;;;;;;;;;;;9.76;100.00;99854.38;5003535;28;19922;-80
2023/10/11 11:09:27;;;;;;;;;;;;;;;9.53;100.00;99847.31;5006317;28;19971;-81
2023/10/11 11:12:02;;;;;;;;;;;;;;;9.44;100.00;99847.66;5009609;28;19970;-81
2023/10/11 11:14:27;;;;;;;;;;;;;;;9.49;100.00;99845.69;5011278;28;20364;-81
2023/10/11 11:16:55;;;;;;;;;;;;;;;9.43;100.00;99841.53;5011666;28;19975;-82
2023/10/11 11:19:25;;;;;;;;;;;;;;;9.33;100.00;99834.84;5012671;28;19925;-81
2023/10/11 11:22:01;;;;;;;;;;;;;;;9.45;100.00;99836.19;5012202;28;19972;-81
2023/10/11 11:24:34;;;;;;;;;;;;;;;9.40;100.00;99835.50;5012489;28;19980;-81
2023/10/11 11:26:59;;;;;;;;;;;;;;;9.53;100.00;99836.75;5009726;28;19922;-82
2023/10/11 11:29:31;;;;;;;;;;;;;;;9.61;100.00;99829.38;5012240;28;19993;-87
2023/10/11 11:31:59;;;;;;;;;;;;;;;9.68;100.00;99826.50;5002644;28;19918;-87
2023/10/11 11:34:27;;;;;;;;;;;;;;;9.61;100.00;99826.72;5002692;28;20330;-84
2023/10/11 11:36:56;;;;;;;;;;;;;;;9.39;100.00;99818.75;5011397;28;21474;-86
2023/10/11 11:39:36;;;;;;;;;;;;;;;9.64;100.00;99823.13;5011917;28;19917;-81
2023/10/11 11:42:07;;;;;;;;;;;;;;;9.41;100.00;99816.03;5011112;28;19926;-81
2023/10/11 11:44:33;;;;;;;;;;;;;;;9.54;100.00;99809.38;5010757;28;19944;-81
2023/10/11 11:47:04;;;;;;;;;;;;;;;9.55;100.00;99813.72;5010937;28;20365;-81
2023/10/11 11:49:29;;;;;;;;;;;;;;;9.51;100.00;99813.91;5011611;28;20368;-80
2023/10/11 11:51:58;;;;;;;;;;;;;;;9.51;100.00;99806.84;4987425;28;19971;-82
2023/10/11 11:54:28;;;;;;;;;;;;;;;9.55;100.00;99794.38;5002359;28;19983;-80
2023/10/11 11:56:54;;;;;;;;;;;;;;;9.59;100.00;99804.78;5010582;28;20865;-81
2023/10/11 11:59:20;;;;;;;;;;;;;;;9.39;100.00;99805.50;5010557;28;20068;-84
2023/10/11 12:01:49;;;;;;;;;;;;;;;9.55;100.00;99795.22;5012256;28;19924;-86
2023/10/11 12:04:19;;;;;;;;;;;;;;;9.30;100.00;99786.50;5002467;28;19975;-79
2023/10/11 12:06:46;;;;;;;;;;;;;;;9.36;100.00;99784.47;5011277;28;20284;-81
2023/10/11 12:09:19;;;;;;;;;;;;;;;9.41;100.00;99776.38;5011946;28;20051;-82
2023/10/11 12:11:49;;;;;;;;;;;;;;;9.59;100.00;99783.59;5010548;28;20320;-83
2023/10/11 12:14:14;;;;;;;;;;;;;;;9.60;100.00;99773.88;5004533;28;20373;-80
2023/10/11 12:16:42;;;;;;;;;;;;;;;9.57;100.00;99774.00;5010913;28;19972;-80
2023/10/11 12:19:14;;;;;;;;;;;;;;;9.50;100.00;99769.88;5001994;28;19921;-80
2023/10/11 12:21:40;;;;;;;;;;;;;;;9.60;100.00;99761.50;5014632;28;20008;-80
2023/10/11 12:24:11;;;;;;;;;;;;;;;9.59;100.00;99765.09;5015006;28;20087;-81
2023/10/11 12:26:43;;;;;;;;;;;;;;;9.67;100.00;99763.91;5014528;28;20008;-80
2023/10/11 12:29:14;;;;;;;;;;;;;;;9.58;100.00;99759.84;5015101;28;20400;-80
2023/10/11 12:31:40;;;;;;;;;;;;;;;9.68;100.00;99760.34;5015358;28;20012;-80
2023/10/11 12:34:09;;;;;;;;;;;;;;;9.57;100.00;99761.66;5016284;28;20060;-80
2023/10/11 12:36:46;;;;;;;;;;;;;;;9.63;100.00;99752.59;5014269;28;20759;-80
2023/10/11 12:39:21;;;;;;;;;;;;;;;9.56;100.00;99751.13;4993620;28;19917;-80
2023/10/11 12:41:49;;;;;;;;;;;;;;;9.52;100.00;99755.66;5013976;28;19968;-82
2023/10/11 12:44:14;;;;;;;;;;;;;;;9.57;100.00;99750.19;5014424;28;19929;-81
2023/10/11 12:46:41;;;;;;;;;;;;;;;9.58;100.00;99749.28;5014925;28;19918;-81
2023/10/11 12:49:12;;;;;;;;;;;;;;;9.56;100.00;99740.56;5015439;28;19929;-81
2023/10/11 12:51:38;;;;;;;;;;;;;;;9.61;100.00;99738.56;5014739;28;19925;-81
2023/10/11 12:54:08;;;;;;;;;;;;;;;9.62;100.00;99738.53;5014339;28;19928;-80
2023/10/11 12:56:33;;;;;;;;;;;;;;;9.72;100.00;99736.38;5014161;28;19917;-81
2023/10/11 12:58:58;;;;;;;;;;;;;;;9.68;100.00;99733.91;5014256;28;20004;-81
2023/10/11 13:01:36;;;;;;;;;;;;;;;9.71;100.00;99729.34;5005259;28;19918;-83
2023/10/11 13:04:09;;;;;;;;;;;;;;;9.59;100.00;99730.69;5013797;28;19940;-80
2023/10/11 13:06:37;;;;;;;;;;;;;;;9.60;100.00;99735.06;5015087;28;19922;-80
2023/10/11 13:09:14;;;;;;;;;;;;;;;9.61;100.00;99730.66;5014686;28;19921;-80
2023/10/11 13:11:44;;;;;;;;;;;;;;;9.53;100.00;99733.59;5002697;28;19917;-81
2023/10/11 13:14:09;;;;;;;;;;;;;;;9.64;100.00;99731.38;5014312;28;19929;-81
2023/10/11 13:16:38;;;;;;;;;;;;;;;9.62;100.00;99724.41;5012764;28;20439;-81
2023/10/11 13:19:03;;;;;;;;;;;;;;;9.63;100.00;99724.34;4990017;28;19918;-81
2023/10/11 13:21:33;;;;;;;;;;;;;;;9.55;100.00;99721.16;5005552;28;19929;-80
2023/10/11 13:23:59;;;;;;;;;;;;;;;9.59;100.00;99725.41;5013971;28;19921;-81
2023/10/11 13:26:24;;;;;;;;;;;;;;;9.73;100.00;99713.41;5014465;28;20380;-81
2023/10/11 13:28:53;;;;;;;;;;;;;;;9.69;100.00;99710.03;5013510;28;19975;-80
2023/10/11 13:31:18;;;;;;;;;;;;;;;9.63;100.00;99711.13;5014482;28;19918;-80
2023/10/11 13:33:43;;;;;;;;;;;;;;;9.64;100.00;99704.06;4991599;28;20261;-80
2023/10/11 13:36:12;;;;;;;;;;;;;;;9.66;100.00;99699.56;4994085;28;19952;-81
2023/10/11 13:38:41;;;;;;;;;;;;;;;9.64;100.00;99694.34;5013464;28;19917;-80
2023/10/11 13:41:07;;;;;;;;;;;;;;;9.68;100.00;99696.84;5014352;28;19980;-81
2023/10/11 13:43:37;;;;;;;;;;;;;;;9.68;100.00;99687.13;5003106;28;20431;-81
2023/10/11 13:46:06;;;;;;;;;;;;;;;9.71;100.00;99683.50;4992990;28;19918;-80
2023/10/11 13:48:37;;;;;;;;;;;;;;;9.81;100.00;99684.84;5014368;28;19929;-81
2023/10/11 13:51:05;;;;;;;;;;;;;;;9.77;100.00;99683.25;5013755;28;19925;-80
2023/10/11 13:53:30;;;;;;;;;;;;;;;9.71;100.00;99681.72;5011685;28;20380;-81
2023/10/11 13:55:58;;;;;;;;;;;;;;;9.73;100.00;99692.22;5013944;28;19948;-81
2023/10/11 13:58:25;;;;;;;;;;;;;;;9.68;100.00;99675.69;5003245;28;19964;-80
2023/10/11 14:05:43;;;;;;;;;;;;;;;9.74;100.00;99660.41;5014029;28;19921;-81
2023/10/11 14:10:50;;;;;;;;;;;;;;;9.69;100.00;99654.47;5013941;28;19924;-80
2023/10/11 14:13:15;;;;;;;;;;;;;;;9.81;100.00;99656.63;5012155;28;19926;-81
2023/10/11 14:15:41;;;;;;;;;;;;;;;9.84;100.00;99655.59;5013976;28;19941;-80
2023/10/11 14:18:14;;;;;;;;;;;;;;;9.76;100.00;99655.06;5012805;28;19921;-81
2023/10/11 14:20:40;;;;;;;;;;;;;;;9.76;100.00;99647.97;5013609;28;19918;-80
2023/10/11 14:23:06;;;;;;;;;;;;;;;9.69;100.00;99641.25;5013622;28;19967;-81
2023/10/11 14:25:31;;;;;;;;;;;;;;;9.69;100.00;99640.38;5012231;28;20020;-81
2023/10/11 14:27:57;;;;;;;;;;;;;;;9.77;100.00;99638.28;5002164;28;19928;-81
2023/10/11 14:30:23;;;;;;;;;;;;;;;9.82;100.00;99634.50;5011559;28;19917;-80
2023/10/11 14:32:50;;;;;;;;;;;;;;;9.81;100.00;99640.72;5012770;28;19921;-81
2023/10/11 14:35:16;;;;;;;;;;;;;;;9.82;100.00;99642.44;4990127;28;19929;-80
2023/10/11 14:37:42;;;;;;;;;;;;;;;9.75;100.00;99634.84;5001651;28;19922;-80
2023/10/11 14:40:14;;;;;;;;;;;;;;;9.64;100.00;99632.63;4989478;28;20431;-81
2023/10/11 14:42:39;;;;;;;;;;;;;;;9.76;100.00;99633.91;5008928;28;19917;-81
2023/10/11 14:45:05;;;;;;;;;;;;;;;9.78;100.00;99645.28;4989252;28;19929;-80
2023/10/11 14:47:30;;;;;;;;;;;;;;;9.76;100.00;99629.47;5010007;28;19941;-80
2023/10/11 14:49:57;;;;;;;;;;;;;;;9.74;100.00;99633.13;5013227;28;20297;-80
2023/10/11 14:52:22;;;;;;;;;;;;;;;9.80;100.00;99624.91;5013198;28;19921;-81
2023/10/11 14:54:48;;;;;;;;;;;;;;;9.71;100.00;99633.25;5003327;28;19925;-81
2023/10/11 14:57:13;;;;;;;;;;;;;;;9.73;100.00;99626.09;5009635;28;20524;-81
2023/10/11 14:59:39;;;;;;;;;;;;;;;9.73;100.00;99628.72;5013050;28;20368;-80
2023/10/11 15:02:05;;;;;;;;;;;;;;;9.85;100.00;99624.72;5003373;28;19988;-80
2023/10/11 15:04:33;;;;;;;;;;;;;;;9.71;100.00;99620.00;5012882;28;20364;-82
2023/10/11 15:06:58;;;;;;;;;;;;;;;9.66;100.00;99614.06;5006523;28;20003;-81
2023/10/11 15:09:24;;;;;;;;;;;;;;;9.61;100.00;99612.44;5011478;28;19956;-80
2023/10/11 15:11:50;;;;;;;;;;;;;;;9.54;100.00;99610.13;5010619;28;20376;-80
2023/10/11 15:14:15;;;;;;;;;;;;;;;9.65;100.00;99605.25;5011154;28;20332;-80
2023/10/11 15:16:40;;;;;;;;;;;;;;;9.58;100.00;99596.72;5012794;28;19921;-80
2023/10/11 15:19:09;;;;;;;;;;;;;;;9.64;100.00;99598.25;5012695;28;20273;-80
2023/10/11 15:21:40;;;;;;;;;;;;;;;9.63;100.00;99594.72;5011800;28;19922;-85
2023/10/11 15:24:07;;;;;;;;;;;;;;;9.56;100.00;99589.78;5011763;28;19940;-80
2023/10/11 15:26:36;;;;;;;;;;;;;;;9.60;100.00;99594.84;5012155;28;19943;-80
2023/10/11 15:29:02;;;;;;;;;;;;;;;9.59;100.00;99590.50;5011855;28;19925;-80
2023/10/11 15:31:32;;;;;;;;;;;;;;;9.62;100.00;99582.44;5006439;28;19925;-85
2023/10/11 15:33:58;;;;;;;;;;;;;;;9.70;100.00;99586.53;5002655;28;19921;-80
2023/10/11 15:36:24;;;;;;;;;;;;;;;9.67;100.00;99584.00;5012429;28;20012;-83
2023/10/11 15:38:49;;;;;;;;;;;;;;;9.63;100.00;99584.13;5010850;28;19983;-80
2023/10/11 15:41:16;;;;;;;;;;;;;;;9.59;100.00;99582.56;5010698;28;19929;-81
2023/10/11 15:43:42;;;;;;;;;;;;;;;9.51;100.00;99583.78;5001144;28;19922;-80
2023/10/11 15:46:10;;;;;;;;;;;;;;;9.71;100.00;99575.03;5011009;28;19921;-81
2023/10/11 15:48:35;;;;;;;;;;;;;;;9.51;100.00;99579.38;5012286;28;19924;-81
2023/10/11 15:51:10;;;;;;;;;;;;;;;9.79;100.00;99583.50;5012268;28;20012;-81
2023/10/11 15:53:36;;;;;;;;;;;;;;;9.60;100.00;99586.91;5008639;28;20047;-81
2023/10/11 15:56:03;;;;;;;;;;;;;;;9.57;100.00;99589.72;5008658;28;20064;-80
2023/10/11 15:58:29;;;;;;;;;;;;;;;9.64;100.00;99590.31;5004692;28;21946;-81
2023/10/11 16:00:54;;;;;;;;;;;;;;;9.66;100.00;99592.91;5010116;28;19929;-80
2023/10/11 16:03:24;;;;;;;;;;;;;;;9.62;100.00;99589.50;5002607;28;19922;-88
2023/10/11 16:05:49;;;;;;;;;;;;;;;9.60;100.00;99589.56;4991183;28;20384;-80
2023/10/11 16:08:15;;;;;;;;;;;;;;;9.63;100.00;99578.84;5011979;28;19918;-80
2023/10/11 16:10:40;;;;;;;;;;;;;;;9.58;100.00;99583.47;5002592;28;20506;-80
2023/10/11 16:13:06;;;;;;;;;;;;;;;10.44;100.00;99581.53;4999146;28;19928;-80
2023/10/11 16:15:32;;;;;;;;;;;;;;;8.83;100.00;99571.53;5011913;28;19926;-80
2023/10/11 16:17:57;;;;;;;;;;;;;;;8.22;100.00;99574.69;5002342;28;19924;-80
2023/10/11 16:20:23;;;;;;;;;;;;;;;7.93;100.00;99573.06;5009289;28;19924;-80
2023/10/11 16:22:48;;;;;;;;;;;;;;;7.79;100.00;99570.94;5012095;28;19926;-80
2023/10/11 16:25:18;;;;;;;;;;;;;;;7.69;100.00;99575.69;5011923;28;19922;-80
2023/10/11 16:27:44;;;;;;;;;;;;;;;7.64;100.00;99574.94;5010689;28;19918;-80
2023/10/11 16:30:11;;;;;;;;;;;;;;;7.56;100.00;99574.34;5011021;28;19924;-80
2023/10/11 16:32:37;;;;;;;;;;;;;;;7.52;100.00;99573.59;5001958;28;19965;-81
2023/10/11 16:35:02;;;;;;;;;;;;;;;7.46;100.00;99576.44;5001872;28;19966;-80
2023/10/11 16:37:28;;;;;;;;;;;;;;;7.38;100.00;99579.31;5011903;28;19967;-80
2023/10/11 16:39:53;;;;;;;;;;;;;;;7.36;100.00;99570.63;5002371;28;20364;-79
2023/10/11 16:42:19;;;;;;;;;;;;;;;7.29;100.00;99571.72;5000685;28;20288;-80
2023/10/11 16:44:44;;;;;;;;;;;;;;;7.22;100.00;99578.97;5001774;28;19949;-80
2023/10/11 16:47:09;;;;;;;;;;;;;;;7.19;100.00;99581.69;5002335;28;19917;-80
2023/10/11 16:49:35;;;;;;;;;;;;;;;7.14;100.00;99575.72;5001917;28;19921;-80
2023/10/11 16:52:01;;;;;;;;;;;;;;;7.09;100.00;99585.56;5011838;28;19928;-80
2023/10/11 16:54:26;;;;;;;;;;;;;;;7.12;100.00;99579.34;5011604;28;20391;-80
2023/10/11 16:56:53;;;;;;;;;;;;;;;7.09;100.00;99578.50;5009536;28;20347;-83
2023/10/11 16:59:19;;;;;;;;;;;;;;;7.12;100.00;99580.19;5011608;28;20288;-80
2023/10/11 17:01:45;;;;;;;;;;;;;;;7.15;100.00;99589.75;5011751;28;19972;-80
2023/10/11 17:04:11;;;;;;;;;;;;;;;7.16;100.00;99581.78;5011507;28;19967;-80
2023/10/11 17:06:36;;;;;;;;;;;;;;;7.15;100.00;99588.00;5011744;28;19918;-80
2023/10/11 17:09:05;;;;;;;;;;;;;;;7.09;100.00;99586.41;5014503;28;20360;-80
2023/10/11 17:11:32;;;;;;;;;;;;;;;7.06;100.00;99586.50;5005060;28;20090;-80
2023/10/11 17:13:57;;;;;;;;;;;;;;;7.09;100.00;99588.19;5003991;28;19957;-81
2023/10/11 17:16:23;;;;;;;;;;;;;;;7.10;100.00;99587.28;5005399;28;19955;-80
2023/10/11 17:18:48;;;;;;;;;;;;;;;7.11;100.00;99596.91;5005373;28;19922;-80
2023/10/11 17:21:13;;;;;;;;;;;;;;;7.08;100.00;99597.88;5011709;28;20373;-80
2023/10/11 17:23:40;;;;;;;;;;;;;;;7.07;100.00;99592.66;5004981;28;19929;-80
2023/10/11 17:26:12;;;;;;;;;;;;;;;7.05;100.00;99589.19;5014359;28;20000;-80
2023/10/11 17:28:38;;;;;;;;;;;;;;;6.99;100.00;99598.16;5013536;28;19917;-79
2023/10/11 17:31:04;;;;;;;;;;;;;;;7.01;100.00;99598.09;5014607;28;19918;-80
2023/10/11 17:33:29;;;;;;;;;;;;;;;7.01;100.00;99600.75;5014677;28;19981;-80
2023/10/11 17:35:54;;;;;;;;;;;;;;;6.98;100.00;99609.59;5014589;28;20008;-80
2023/10/11 17:38:19;;;;;;;;;;;;;;;6.94;100.00;99607.09;5014540;28;19991;-80
2023/10/11 17:40:45;;;;;;;;;;;;;;;6.97;100.00;99607.84;5014443;28;20400;-80
2023/10/11 17:43:12;;;;;;;;;;;;;;;6.95;100.00;99609.69;5012796;28;19979;-79
2023/10/11 17:45:39;;;;;;;;;;;;;;;6.92;100.00;99615.03;4989757;28;19922;-80
2023/10/11 17:48:05;;;;;;;;;;;;;;;6.90;100.00;99617.72;5014578;28;19919;-80
2023/10/11 17:50:31;;;;;;;;;;;;;;;6.97;100.00;99621.03;5004677;28;19925;-80
2023/10/11 17:53:01;;;;;;;;;;;;;;;7.11;100.00;99614.47;5014553;28;19925;-88
2023/10/11 17:55:30;;;;;;;;;;;;;;;7.03;100.00;99614.72;4992261;28;19928;-79
2023/10/11 17:57:56;;;;;;;;;;;;;;;6.97;100.00;99621.03;5003089;28;19917;-80
2023/10/11 18:00:26;;;;;;;;;;;;;;;6.96;100.00;99621.97;5004072;28;20286;-80
2023/10/11 18:02:51;;;;;;;;;;;;;;;6.93;100.00;99614.16;5014090;28;19928;-80
2023/10/11 18:05:18;;;;;;;;;;;;;;;6.81;100.00;99618.03;5013532;28;19918;-81
2023/10/11 18:07:46;;;;;;;;;;;;;;;6.86;100.00;99615.22;5013412;28;19917;-80
2023/10/11 18:10:15;;;;;;;;;;;;;;;6.88;100.00;99613.44;5013862;28;19946;-79
2023/10/11 18:12:40;;;;;;;;;;;;;;;6.83;100.00;99612.69;5002704;28;20691;-80
2023/10/11 18:15:05;;;;;;;;;;;;;;;6.80;100.00;99611.03;5004110;28;20385;-80
2023/10/11 18:17:33;;;;;;;;;;;;;;;6.86;100.00;99608.22;5013781;28;19932;-80
2023/10/11 18:19:59;;;;;;;;;;;;;;;6.75;100.00;99610.31;5013007;28;20012;-80
2023/10/11 18:22:29;;;;;;;;;;;;;;;6.70;100.00;99618.34;4990271;28;20348;-79
2023/10/11 18:24:54;;;;;;;;;;;;;;;6.71;100.00;99616.56;5013638;28;19928;-80
2023/10/11 18:27:20;;;;;;;;;;;;;;;6.68;100.00;99617.50;4990540;28;19921;-80
2023/10/11 18:29:47;;;;;;;;;;;;;;;6.71;100.00;99612.16;4989124;28;20328;-80
2023/10/11 18:32:13;;;;;;;;;;;;;;;6.75;100.00;99620.84;5013502;28;19972;-80
2023/10/11 18:34:38;;;;;;;;;;;;;;;6.78;100.00;99627.75;5013625;28;19913;-80
2023/10/11 18:37:04;;;;;;;;;;;;;;;6.72;100.00;99629.69;4989247;28;19928;-80
2023/10/11 18:39:29;;;;;;;;;;;;;;;6.77;100.00;99628.69;4990331;28;19917;-81
2023/10/11 18:41:54;;;;;;;;;;;;;;;6.83;100.00;99632.00;5000834;28;19925;-80
2023/10/11 18:44:19;;;;;;;;;;;;;;;6.79;100.00;99630.34;5013461;28;19918;-80
2023/10/11 18:46:45;;;;;;;;;;;;;;;6.86;100.00;99625.75;5003805;28;20369;-80
2023/10/11 18:49:15;;;;;;;;;;;;;;;6.80;100.00;99625.97;4990720;28;19929;-80
2023/10/11 18:51:40;;;;;;;;;;;;;;;6.81;100.00;99628.56;5012357;28;19924;-80
2023/10/11 18:54:06;;;;;;;;;;;;;;;6.82;100.00;99637.31;4992498;28;19918;-80
2023/10/11 18:56:35;;;;;;;;;;;;;;;6.82;100.00;99629.41;5003685;28;20014;-80
2023/10/11 18:59:02;;;;;;;;;;;;;;;6.83;100.00;99624.09;4986855;28;19917;-80
2023/10/11 19:01:27;;;;;;;;;;;;;;;6.77;100.00;99624.28;5003277;28;19924;-80
2023/10/11 19:03:52;;;;;;;;;;;;;;;6.77;100.00;99621.66;5012804;28;19921;-80
2023/10/11 19:06:17;;;;;;;;;;;;;;;6.77;100.00;99623.44;5003339;28;20333;-80
2023/10/11 19:08:43;;;;;;;;;;;;;;;6.69;100.00;99619.25;5002644;28;19921;-80
2023/10/11 19:11:11;;;;;;;;;;;;;;;6.64;100.00;99613.25;5012754;28;19917;-80
2023/10/11 19:13:36;;;;;;;;;;;;;;;6.52;100.00;99614.44;5001659;28;19926;-80
2023/10/11 19:16:02;;;;;;;;;;;;;;;6.62;100.00;99609.81;5011897;28;19987;-80
2023/10/11 19:18:28;;;;;;;;;;;;;;;6.55;100.00;99610.88;5012787;28;19923;-81
2023/10/11 19:21:00;;;;;;;;;;;;;;;6.57;100.00;99609.06;5012687;28;19921;-80
2023/10/11 19:23:26;;;;;;;;;;;;;;;6.51;100.00;99602.22;5012083;28;19929;-81
2023/10/11 19:25:55;;;;;;;;;;;;;;;6.57;100.00;99608.19;5011791;28;19917;-80
2023/10/11 19:28:20;;;;;;;;;;;;;;;6.50;100.00;99611.00;4987846;28;19925;-80
2023/10/11 19:30:45;;;;;;;;;;;;;;;6.53;100.00;99607.44;5000277;28;19921;-80
2023/10/11 19:33:12;;;;;;;;;;;;;;;6.55;100.00;99605.63;5009379;28;20373;-80
2023/10/11 19:35:37;;;;;;;;;;;;;;;6.57;100.00;99600.31;5011993;28;19933;-80
2023/10/11 19:38:04;;;;;;;;;;;;;;;6.58;100.00;99605.53;5012417;28;19917;-80
2023/10/11 19:40:29;;;;;;;;;;;;;;;6.52;100.00;99610.97;4988773;28;20009;-80
2023/10/11 19:42:54;;;;;;;;;;;;;;;6.60;100.00;99605.50;5007600;28;20005;-80
2023/10/11 19:45:22;;;;;;;;;;;;;;;6.52;100.00;99603.06;5012136;28;19922;-80
2023/10/11 19:47:49;;;;;;;;;;;;;;;6.57;100.00;99598.53;5012154;28;20016;-80
2023/10/11 19:50:16;;;;;;;;;;;;;;;6.56;100.00;99602.09;5000619;28;19913;-80
2023/10/11 19:52:43;;;;;;;;;;;;;;;6.61;100.00;99600.19;4994103;28;20334;-80
2023/10/11 19:55:08;;;;;;;;;;;;;;;6.65;100.00;99600.94;4987538;28;19963;-80
2023/10/11 19:57:34;;;;;;;;;;;;;;;6.63;100.00;99603.63;5001374;28;19953;-81
2023/10/11 19:59:59;;;;;;;;;;;;;;;6.57;100.00;99606.44;5001164;28;19945;-80
2023/10/11 20:02:25;;;;;;;;;;;;;;;6.60;100.00;99601.06;5002327;28;20392;-81
2023/10/11 20:04:50;;;;;;;;;;;;;;;6.60;100.00;99606.34;4988730;28;19929;-80
2023/10/11 20:07:17;;;;;;;;;;;;;;;6.58;100.00;99599.41;5011197;28;20266;-81
2023/10/11 20:09:43;;;;;;;;;;;;;;;6.66;100.00;99587.72;5001970;28;19918;-80
2023/10/11 20:12:08;;;;;;;;;;;;;;;6.62;100.00;99604.53;5000525;28;19929;-80
2023/10/11 20:14:33;;;;;;;;;;;;;;;6.63;100.00;99598.34;4988146;28;19928;-80
2023/10/11 20:17:05;;;;;;;;;;;;;;;6.65;100.00;99593.94;5011953;28;19964;-80